Time;durP1;ratioP1;P1;durP2;ratioP2;P2;SDS_P1;SDS_P2;PMS_P1;PMS_P2;Temp;Humidity;BMP_temperature;BMP_pressure;BME280_temperature;BME280_humidity;BME280_pressure;Samples;Min_cycle;Max_cycle;Signal;HPM_P1;HPM_P2
2022/09/26 00:01:52;;;;;;;15.90;9.93;;;9.00;99.90;;;9.57;100.00;98625.66;5042222;27;119497;-72
2022/09/26 00:04:23;;;;;;;13.35;7.53;;;9.00;99.90;;;9.57;100.00;98620.25;5044961;27;119632;-72
2022/09/26 00:06:55;;;;;;;10.48;6.82;;;9.00;99.90;;;9.62;100.00;98628.19;5056333;27;130415;-71
2022/09/26 00:09:26;;;;;;;11.32;7.00;;;8.90;99.90;;;9.64;100.00;98620.53;5061701;27;130362;-71
2022/09/26 00:11:54;;;;;;;9.65;6.60;;;8.90;99.90;;;9.66;100.00;98621.00;5046061;27;121170;-71
2022/09/26 00:14:26;;;;;;;9.85;6.85;;;8.90;99.90;;;9.59;100.00;98618.00;5062077;27;122119;-71
2022/09/26 00:16:56;;;;;;;9.55;6.35;;;8.80;99.90;;;9.52;100.00;98618.53;5061712;27;131291;-71
2022/09/26 00:19:25;;;;;;;7.50;5.35;;;8.80;99.90;;;9.48;100.00;98624.91;5061747;27;130053;-71
2022/09/26 00:21:55;;;;;;;8.18;5.85;;;8.80;99.90;;;9.41;100.00;98616.50;5062343;27;119646;-71
2022/09/26 00:24:23;;;;;;;9.43;6.40;;;8.70;99.90;;;9.39;100.00;98613.31;5047098;27;119095;-70
2022/09/26 00:26:52;;;;;;;7.40;6.00;;;8.70;99.90;;;9.39;100.00;98618.75;5061638;27;130006;-70
2022/09/26 00:29:21;;;;;;;7.53;6.28;;;8.70;99.90;;;9.40;100.00;98617.63;5029400;27;129064;-70
2022/09/26 00:31:50;;;;;;;9.77;6.78;;;8.70;99.90;;;9.35;100.00;98624.81;5061756;27;119543;-70
2022/09/26 00:34:20;;;;;;;10.95;6.55;;;8.60;99.90;;;9.27;100.00;98620.22;5046494;27;119381;-71
2022/09/26 00:36:49;;;;;;;8.85;6.22;;;8.60;99.90;;;9.18;100.00;98622.94;5044286;27;129330;-71
2022/09/26 00:39:19;;;;;;;7.60;5.82;;;8.50;99.90;;;9.17;100.00;98618.63;5046277;27;128381;-71
2022/09/26 00:41:48;;;;;;;9.77;6.63;;;8.50;99.90;;;9.10;100.00;98612.94;5064052;27;119415;-71
2022/09/26 00:44:48;;;;;;;9.23;5.85;;;8.50;99.90;;;9.09;100.00;98611.34;5043315;27;120491;-71
2022/09/26 00:47:33;;;;;;;11.73;6.53;;;8.50;99.90;;;9.05;100.00;98615.03;5046228;27;130444;-72
2022/09/26 00:50:07;;;;;;;9.90;6.32;;;8.40;99.90;;;9.03;100.00;98619.97;5046210;27;129508;-71
2022/09/26 00:52:40;;;;;;;9.13;7.47;;;8.40;99.90;;;9.01;100.00;98614.88;5029534;27;118860;-70
2022/09/26 00:55:12;;;;;;;8.93;5.97;;;8.30;99.90;;;8.95;100.00;98611.53;5061924;27;120021;-71
2022/09/26 00:57:48;;;;;;;8.75;6.60;;;8.30;99.90;;;8.93;100.00;98613.00;5045927;27;130058;-71
2022/09/26 01:00:16;;;;;;;9.65;7.00;;;8.30;99.90;;;8.81;100.00;98617.13;5045656;27;128225;-71
2022/09/26 01:02:48;;;;;;;9.38;7.10;;;8.20;99.90;;;8.82;100.00;98615.25;5061624;27;123335;-72
2022/09/26 01:05:20;;;;;;;8.57;6.70;;;8.20;99.90;;;8.76;100.00;98619.25;5061100;27;121689;-71
2022/09/26 01:07:49;;;;;;;9.70;6.38;;;8.10;99.90;;;8.64;100.00;98609.84;5060927;27;130042;-70
2022/09/26 01:10:19;;;;;;;8.00;6.60;;;8.00;99.90;;;8.53;100.00;98605.88;5045701;27;129824;-70
2022/09/26 01:12:48;;;;;;;10.70;6.80;;;8.00;99.90;;;8.55;100.00;98609.06;5061497;27;119731;-71
2022/09/26 01:15:17;;;;;;;11.98;6.85;;;7.90;99.90;;;8.58;100.00;98600.31;5063272;27;119289;-71
2022/09/26 01:17:46;;;;;;;9.90;6.30;;;7.90;99.90;;;8.60;100.00;98595.38;5059689;27;130241;-72
2022/09/26 01:20:32;;;;;;;9.63;7.03;;;7.80;99.90;;;8.45;100.00;98595.88;5063193;27;129135;-72
2022/09/26 01:24:02;;;;;;;9.10;7.10;;;7.80;99.90;;;8.22;100.00;98590.59;5060690;27;119592;-72
2022/09/26 01:26:58;;;;;;;11.07;7.43;;;7.70;99.90;;;8.14;100.00;98588.69;5029369;27;119923;-71
2022/09/26 01:30:07;;;;;;;10.65;7.53;;;7.70;99.90;;;8.17;100.00;98588.06;5059701;27;130192;-71
2022/09/26 01:33:11;;;;;;;8.88;7.45;;;7.60;99.90;;;8.23;100.00;98581.38;5060619;27;130240;-71
2022/09/26 01:36:30;;;;;;;9.63;7.45;;;7.60;99.90;;;8.28;100.00;98588.53;5045316;27;121231;-72
2022/09/26 01:39:14;;;;;;;11.50;7.90;;;7.60;99.90;;;8.26;100.00;98588.84;5042566;27;119881;-72
2022/09/26 01:41:56;;;;;;;10.57;7.90;;;7.70;99.90;;;8.30;100.00;98585.50;5060398;27;130028;-71
2022/09/26 01:44:33;;;;;;;9.93;8.23;;;7.70;99.90;;;8.36;100.00;98587.72;5045333;27;128412;-71
2022/09/26 01:47:13;;;;;;;8.82;7.40;;;7.70;99.90;;;8.44;100.00;98583.47;5060914;27;119878;-71
2022/09/26 01:49:57;;;;;;;11.00;8.70;;;7.70;99.90;;;8.48;100.00;98587.13;5046245;27;118902;-71
2022/09/26 01:52:36;;;;;;;12.98;8.85;;;7.80;99.90;;;8.39;100.00;98580.91;5045441;27;130337;-71
2022/09/26 01:55:11;;;;;;;13.43;9.18;;;7.80;99.90;;;8.39;100.00;98584.38;5045659;27;128739;-71
2022/09/26 01:57:44;;;;;;;12.48;9.10;;;7.80;99.90;;;8.48;100.00;98586.31;5059556;27;122080;-71
2022/09/26 02:00:13;;;;;;;11.80;9.13;;;7.80;99.90;;;8.54;100.00;98579.63;5062548;27;121510;-71
2022/09/26 02:02:48;;;;;;;11.70;9.20;;;7.80;99.90;;;8.58;100.00;98581.38;5060707;27;130703;-74
2022/09/26 02:05:25;;;;;;;10.85;8.68;;;7.80;99.90;;;8.62;100.00;98586.94;5060165;27;129932;-71
2022/09/26 02:08:00;;;;;;;14.38;9.45;;;7.90;99.90;;;8.66;100.00;98581.69;5028591;27;119089;-72
2022/09/26 02:10:34;;;;;;;13.52;10.38;;;7.90;99.90;;;8.66;100.00;98592.50;5060595;27;119746;-70
2022/09/26 02:13:13;;;;;;;11.57;9.20;;;7.90;99.90;;;8.62;100.00;98595.06;5041657;27;130371;-71
2022/09/26 02:15:46;;;;;;;14.82;8.95;;;7.90;99.90;;;8.54;100.00;98585.84;5062635;27;129380;-70
2022/09/26 02:18:20;;;;;;;12.40;8.60;;;7.90;99.90;;;8.51;100.00;98591.91;5042200;27;120273;-70
2022/09/26 02:20:54;;;;;;;11.93;9.70;;;7.90;99.90;;;8.56;100.00;98583.59;5062459;27;119014;-71
2022/09/26 02:23:23;;;;;;;11.93;9.80;;;7.90;99.90;;;8.56;100.00;98589.00;5058769;27;130019;-71
2022/09/26 02:25:54;;;;;;;12.65;8.98;;;7.90;99.90;;;8.60;100.00;98583.75;5028060;27;128758;-71
2022/09/26 02:28:22;;;;;;;11.60;9.15;;;7.90;99.90;;;8.67;100.00;98577.88;5058779;27;120463;-70
2022/09/26 02:30:54;;;;;;;12.52;9.60;;;7.90;99.90;;;8.69;100.00;98575.63;5045410;27;119176;-70
2022/09/26 02:33:26;;;;;;;12.07;8.50;;;8.00;99.90;;;8.62;100.00;98570.72;5058593;27;129918;-70
2022/09/26 02:35:56;;;;;;;12.52;9.05;;;7.90;99.90;;;8.50;100.00;98579.47;5041580;27;129485;-69
2022/09/26 02:38:36;;;;;;;13.25;10.45;;;7.90;99.90;;;8.40;100.00;98579.78;5041968;27;120288;-70
2022/09/26 02:41:29;;;;;;;16.30;11.32;;;7.90;99.90;;;8.23;100.00;98570.56;5045319;27;118937;-70
2022/09/26 02:44:28;;;;;;;15.85;12.05;;;7.80;99.90;;;8.23;100.00;98577.88;5041861;27;130273;-70
2022/09/26 02:47:33;;;;;;;14.98;10.52;;;7.80;99.90;;;8.34;100.00;98586.47;5041387;27;129128;-70
2022/09/26 02:50:38;;;;;;;13.45;9.95;;;7.80;99.90;;;8.28;100.00;98578.50;5043579;27;121518;-70
2022/09/26 02:53:22;;;;;;;15.80;10.85;;;7.80;99.90;;;8.29;100.00;98579.31;5041645;27;121670;-70
2022/09/26 02:56:05;;;;;;;11.63;9.25;;;7.80;99.90;;;8.36;100.00;98573.44;5044323;27;129630;-69
2022/09/26 02:58:46;;;;;;;12.30;10.02;;;7.80;99.90;;;8.44;100.00;98575.34;5058688;27;130650;-69
2022/09/26 03:01:21;;;;;;;16.73;11.35;;;7.80;99.90;;;8.45;100.00;98572.31;5047915;27;119943;-71
2022/09/26 03:03:59;;;;;;;12.52;10.30;;;7.90;99.90;;;8.41;100.00;98570.53;5047921;27;118117;-69
2022/09/26 03:06:36;;;;;;;13.70;10.35;;;7.80;99.90;;;8.44;100.00;98569.94;5044590;27;129930;-70
2022/09/26 03:09:07;;;;;;;15.57;11.00;;;7.90;99.90;;;8.46;100.00;98562.28;5047979;27;129094;-70
2022/09/26 03:11:37;;;;;;;14.88;11.15;;;7.90;99.90;;;8.48;100.00;98570.91;5044715;27;120475;-70
2022/09/26 03:14:07;;;;;;;13.32;10.68;;;7.90;99.90;;;8.51;100.00;98570.25;5031023;27;118812;-70
2022/09/26 03:16:43;;;;;;;13.23;10.75;;;7.90;99.90;;;8.45;100.00;98560.72;5060877;27;129770;-70
2022/09/26 03:19:21;;;;;;;14.85;10.20;;;7.90;99.90;;;8.43;100.00;98562.91;5047938;27;129057;-72
2022/09/26 03:21:51;;;;;;;13.98;9.80;;;7.90;99.90;;;8.37;100.00;98561.50;5044747;27;119803;-71
2022/09/26 03:24:20;;;;;;;11.82;9.65;;;7.90;99.90;;;8.26;100.00;98559.13;5048002;27;119794;-71
2022/09/26 03:26:50;;;;;;;11.45;9.10;;;7.80;99.90;;;8.19;100.00;98564.19;5064387;27;129457;-71
2022/09/26 03:29:19;;;;;;;10.70;8.32;;;7.80;99.90;;;8.16;100.00;98559.44;5062597;27;129800;-71
2022/09/26 03:31:49;;;;;;;13.75;9.55;;;7.80;99.90;;;8.23;100.00;98559.75;5062840;27;119970;-71
2022/09/26 03:34:18;;;;;;;12.80;9.27;;;7.70;99.90;;;8.32;100.00;98559.75;5065043;27;119674;-71
2022/09/26 03:36:46;;;;;;;13.98;9.45;;;7.80;99.90;;;8.37;100.00;98559.59;5064645;27;129219;-70
2022/09/26 03:39:17;;;;;;;13.02;9.80;;;7.80;99.90;;;8.43;100.00;98557.50;5047548;27;128997;-70
2022/09/26 03:42:02;;;;;;;14.45;11.57;;;7.80;99.90;;;8.46;100.00;98556.88;5042959;27;122194;-71
2022/09/26 03:44:32;;;;;;;14.30;10.90;;;7.80;99.90;;;8.44;100.00;98554.50;5064867;27;121940;-71
2022/09/26 03:47:04;;;;;;;14.30;11.55;;;7.90;99.90;;;8.47;100.00;98550.38;5062086;27;129897;-71
2022/09/26 03:49:33;;;;;;;13.40;10.18;;;7.90;99.90;;;8.49;100.00;98560.88;5042846;27;130105;-71
2022/09/26 03:52:02;;;;;;;14.40;10.80;;;7.90;99.90;;;8.54;100.00;98564.22;5059214;27;119323;-71
2022/09/26 03:54:32;;;;;;;14.48;11.68;;;7.90;99.90;;;8.59;100.00;98557.84;5046728;27;119738;-72
2022/09/26 03:57:01;;;;;;;17.60;12.60;;;7.90;99.90;;;8.60;100.00;98556.72;5043912;27;131420;-72
2022/09/26 03:59:29;;;;;;;15.07;11.90;;;8.00;99.90;;;8.56;100.00;98558.47;5047355;27;129504;-72
2022/09/26 04:01:58;;;;;;;17.70;13.45;;;8.00;99.90;;;8.54;100.00;98561.50;5043033;27;119769;-72
2022/09/26 04:04:28;;;;;;;16.02;13.15;;;8.00;99.90;;;8.57;100.00;98557.34;5046369;27;119188;-72
2022/09/26 04:06:56;;;;;;;16.98;13.23;;;8.00;99.90;;;8.56;100.00;98551.16;5060645;27;130673;-71
2022/09/26 04:09:27;;;;;;;18.25;14.40;;;8.10;99.90;;;8.60;100.00;98557.53;5046535;27;130216;-71
2022/09/26 04:11:58;;;;;;;20.08;14.27;;;8.10;99.90;;;8.61;100.00;98548.28;5059096;27;119281;-72
2022/09/26 04:14:26;;;;;;;20.73;15.13;;;8.10;99.90;;;8.57;100.00;98552.75;5046179;27;119672;-71
2022/09/26 04:16:58;;;;;;;20.80;16.00;;;8.20;99.90;;;8.66;100.00;98555.44;5060555;27;130157;-73
2022/09/26 04:19:40;;;;;;;19.58;15.40;;;8.20;99.90;;;8.69;100.00;98554.78;5046820;27;131478;-73
2022/09/26 04:22:08;;;;;;;20.88;15.77;;;8.20;99.90;;;8.77;100.00;98553.19;5046959;27;120011;-72
2022/09/26 04:24:37;;;;;;;20.23;14.25;;;8.20;99.90;;;8.85;100.00;98551.56;5061110;27;119659;-72
2022/09/26 04:27:07;;;;;;;19.65;15.45;;;8.30;99.90;;;8.89;100.00;98556.00;5046800;27;129537;-73
2022/09/26 04:29:36;;;;;;;20.55;15.48;;;8.20;99.90;;;8.90;100.00;98554.13;5043330;27;129917;-72
2022/09/26 04:32:27;;;;;;;17.98;15.05;;;8.30;99.90;;;8.91;100.00;98553.78;5047323;27;122137;-71
2022/09/26 04:35:19;;;;;;;20.77;16.17;;;8.30;99.90;;;9.00;100.00;98554.53;5016266;27;122199;-71
2022/09/26 04:37:47;;;;;;;19.83;15.65;;;8.30;99.90;;;9.04;100.00;98553.88;5043347;27;130093;-71
2022/09/26 04:40:16;;;;;;;22.38;15.85;;;8.30;99.90;;;9.02;100.00;98554.22;5046709;27;128811;-71
2022/09/26 04:42:58;;;;;;;18.92;13.77;;;8.30;99.90;;;8.92;100.00;98555.34;5063465;27;119777;-70
2022/09/26 04:45:27;;;;;;;19.67;14.40;;;8.30;99.90;;;8.86;100.00;98559.34;5062162;27;119777;-71
2022/09/26 04:47:56;;;;;;;19.73;14.40;;;8.30;99.90;;;8.87;100.00;98560.16;5043327;27;129750;-71
2022/09/26 04:50:27;;;;;;;17.88;13.68;;;8.40;99.90;;;8.85;100.00;98560.50;5061552;27;129656;-71
2022/09/26 04:53:10;;;;;;;19.30;16.00;;;8.40;99.90;;;8.88;100.00;98559.84;5063451;27;119588;-69
2022/09/26 04:55:59;;;;;;;17.83;13.40;;;8.40;99.90;;;8.98;100.00;98562.19;5064161;27;119956;-69
2022/09/26 04:58:30;;;;;;;23.52;14.48;;;8.50;99.90;;;9.14;100.00;98562.44;5060038;27;130775;-68
2022/09/26 05:01:03;;;;;;;17.33;14.68;;;8.50;99.90;;;9.22;100.00;98563.53;5060021;27;129659;-69
2022/09/26 05:03:47;;;;;;;17.90;14.50;;;8.60;99.90;;;9.35;100.00;98570.66;5062016;27;119408;-68
2022/09/26 05:06:17;;;;;;;19.08;15.65;;;8.70;99.90;;;9.42;100.00;98555.81;5046750;27;119552;-69
2022/09/26 05:08:47;;;;;;;19.23;15.48;;;8.70;99.90;;;9.52;100.00;98560.84;5066680;27;130035;-69
2022/09/26 05:11:20;;;;;;;17.95;15.55;;;8.80;99.90;;;9.63;100.00;98570.19;5057329;27;129623;-69
2022/09/26 05:13:50;;;;;;;16.90;14.63;;;8.80;99.90;;;9.73;100.00;98562.81;5062914;27;119159;-70
2022/09/26 05:16:20;;;;;;;20.15;15.80;;;8.90;99.90;;;9.81;100.00;98564.66;5060404;27;119546;-69
2022/09/26 05:18:52;;;;;;;22.95;16.25;;;9.00;99.90;;;9.80;100.00;98573.91;5061897;27;129208;-69
2022/09/26 05:21:20;;;;;;;20.65;16.80;;;9.00;99.90;;;9.81;100.00;98570.06;5058964;27;129787;-69
2022/09/26 05:26:42;;;;;;;24.50;18.23;;;9.10;99.90;;;9.88;100.00;98570.38;5060465;27;122071;-70
2022/09/26 05:29:13;;;;;;;23.65;16.05;;;9.20;99.90;;;9.89;100.00;98561.91;5045485;27;130332;-70
2022/09/26 05:31:53;;;;;;;17.50;13.52;;;9.20;99.90;;;9.94;100.00;98569.03;5042187;27;129860;-71
2022/09/26 05:34:24;;;;;;;20.73;14.93;;;9.30;99.90;;;9.94;100.00;98565.53;5062948;27;119224;-70
2022/09/26 05:36:54;;;;;;;20.55;15.18;;;9.30;99.90;;;9.96;100.00;98555.16;5042560;27;120161;-69
2022/09/26 05:42:09;;;;;;;22.23;15.37;;;9.40;99.90;;;10.29;100.00;98563.34;5042355;27;130054;-70
2022/09/26 05:44:39;;;;;;;19.95;15.20;;;9.60;99.90;;;10.44;100.00;98561.97;5042540;27;119611;-70
2022/09/26 05:47:08;;;;;;;21.92;15.55;;;9.70;99.90;;;10.63;100.00;98561.47;5060615;27;119512;-70
2022/09/26 05:49:37;;;;;;;25.73;15.95;;;9.80;99.90;;;10.76;100.00;98549.50;5040707;27;130022;-69
2022/09/26 05:52:06;;;;;;;25.73;17.65;;;9.90;99.90;;;10.94;100.00;98562.91;5044952;27;129112;-73
2022/09/26 05:54:34;;;;;;;25.75;19.98;;;10.00;99.90;;;11.05;100.00;98564.06;5060526;27;119835;-72
2022/09/26 05:57:11;;;;;;;27.80;19.80;;;10.10;99.90;;;11.22;100.00;98559.53;5045684;27;118803;-70
2022/09/26 05:59:49;;;;;;;23.75;17.52;;;10.20;99.90;;;11.28;100.00;98564.41;5059183;27;129945;-70
2022/09/26 06:02:26;;;;;;;21.27;16.38;;;10.30;99.90;;;11.44;100.00;98561.81;5060489;27;130366;-71
2022/09/26 06:05:15;;;;;;;19.20;15.57;;;10.40;99.90;;;11.62;100.00;98564.28;5062805;27;119479;-71
2022/09/26 06:08:02;;;;;;;21.48;15.13;;;10.60;99.90;;;11.77;100.00;98569.03;5060906;27;120046;-70
2022/09/26 06:10:58;;;;;;;24.58;14.07;;;10.70;99.90;;;11.92;100.00;98558.59;5049523;27;130252;-69
2022/09/26 06:13:26;;;;;;;20.30;12.63;;;10.80;99.90;;;12.08;100.00;98556.78;5044953;27;129365;-70
2022/09/26 06:15:57;;;;;;;17.65;12.40;;;10.90;99.90;;;12.14;100.00;98554.59;5040916;27;122549;-69
2022/09/26 06:18:27;;;;;;;17.27;12.00;;;10.90;99.90;;;12.18;98.36;98550.81;5045194;27;121568;-70
2022/09/26 06:20:56;;;;;;;17.10;11.70;;;11.00;99.90;;;12.20;96.34;98550.47;5059766;27;129805;-68
2022/09/26 06:23:24;;;;;;;15.65;11.27;;;11.10;97.20;;;12.30;95.58;98551.94;5061916;27;129039;-68
2022/09/26 06:25:53;;;;;;;16.58;11.68;;;11.20;90.20;;;12.44;95.58;98562.44;5042134;27;120261;-71
2022/09/26 06:28:22;;;;;;;21.50;12.65;;;11.30;90.20;;;12.62;94.79;98560.19;5045255;27;119206;-70
2022/09/26 06:30:51;;;;;;;16.67;11.20;;;11.50;90.30;;;12.75;93.55;98567.94;5028030;27;129751;-70
2022/09/26 06:33:35;;;;;;;17.33;11.35;;;11.50;70.30;;;12.76;90.59;98568.72;5061157;27;129796;-70
2022/09/26 06:36:18;;;;;;;16.60;12.40;;;11.50;48.00;;;12.83;89.42;98568.94;5038506;27;119659;-70
2022/09/26 06:38:46;;;;;;;18.35;11.98;;;11.60;35.10;;;13.01;88.25;98561.22;5024461;27;118872;-70
2022/09/26 06:41:18;;;;;;;17.98;11.63;;;11.70;29.60;;;13.18;88.25;98568.25;5021948;27;130025;-69
2022/09/26 06:43:48;;;;;;;20.45;11.98;;;11.80;30.20;;;13.29;86.80;98565.78;5020785;27;129568;-71
2022/09/26 06:46:41;;;;;;;15.57;11.90;;;11.90;17.30;;;13.37;85.36;98569.50;5021598;27;119977;-68
2022/09/26 06:49:19;;;;;;;19.58;12.80;;;12.00;9.10;;;13.39;83.76;98564.50;5041263;27;119830;-71
2022/09/26 06:52:10;;;;;;;21.60;13.27;;;11.90;5.40;;;13.52;83.69;98565.19;5037584;27;130323;-70
2022/09/26 06:54:39;;;;;;;19.63;14.60;;;12.10;1.00;;;13.73;82.74;98570.34;5020521;27;129494;-70
2022/09/26 06:57:08;;;;;;;21.15;15.68;;;12.30;1.00;;;13.88;81.59;98566.78;5038054;27;119915;-70
2022/09/26 06:59:37;;;;;;;21.02;15.13;;;12.40;1.00;;;14.00;80.93;98574.84;5038444;27;119681;-71
2022/09/26 07:02:32;;;;;;;18.05;13.93;;;12.50;1.00;;;14.22;79.54;98572.56;5032176;27;130098;-71
2022/09/26 07:05:32;;;;;;;16.83;13.32;;;12.70;1.00;;;14.33;78.09;98579.03;5033411;27;129662;-71
2022/09/26 07:08:00;;;;;;;16.70;11.98;;;12.70;1.00;;;14.45;76.35;98580.84;5056782;27;122165;-75
2022/09/26 07:10:34;;;;;;;16.83;12.13;;;12.70;1.00;;;14.55;76.73;98576.72;5058167;27;122346;-73
2022/09/26 07:13:10;;;;;;;14.95;10.60;;;12.80;1.00;;;14.62;74.88;98582.38;5043907;27;128967;-72
2022/09/26 07:15:39;;;;;;;15.02;10.60;;;12.80;1.00;;;14.76;73.93;98575.56;5027481;27;129369;-73
2022/09/26 07:18:25;;;;;;;16.33;10.88;;;13.00;1.00;;;14.78;72.86;98578.75;5024243;27;119478;-74
2022/09/26 07:21:07;;;;;;;18.65;10.60;;;13.00;1.00;;;14.71;71.73;98576.69;5020926;27;119587;-71
2022/09/26 07:23:57;;;;;;;15.85;9.95;;;13.00;1.00;;;14.94;71.97;98584.13;5038691;27;130561;-71
2022/09/26 07:26:26;;;;;;;18.27;10.10;;;13.20;1.00;;;15.11;71.13;98578.16;5039312;27;130479;-70
2022/09/26 07:28:54;;;;;;;19.00;9.70;;;13.40;1.00;;;15.19;69.68;98582.63;5024014;27;119381;-69
2022/09/26 07:31:25;;;;;;;13.75;8.70;;;13.40;1.00;;;15.21;68.65;98582.25;5020511;27;120314;-70
2022/09/26 07:34:16;;;;;;;13.95;8.43;;;13.50;1.00;;;15.51;68.67;98576.88;5039989;27;130000;-69
2022/09/26 07:36:47;;;;;;;11.15;6.80;;;13.70;1.00;;;15.43;64.53;98592.38;5020261;27;129803;-69
2022/09/26 07:39:16;;;;;;;10.90;5.28;;;13.70;1.00;;;15.41;65.46;98588.41;5020851;27;120219;-71
2022/09/26 07:41:46;;;;;;;8.73;5.85;;;13.70;1.00;;;15.65;65.39;98581.78;5024089;27;119365;-72
2022/09/26 07:44:16;;;;;;;9.45;5.63;;;13.90;1.00;;;15.86;64.44;98581.31;5020264;27;129864;-71
2022/09/26 07:52:38;;;;;;;8.60;5.72;;;14.20;1.00;;;16.29;62.54;98581.13;5026354;27;119410;-71
2022/09/26 07:55:21;;;;;;;9.73;4.93;;;14.40;1.00;;;16.48;61.83;98570.00;5041755;27;130776;-70
2022/09/26 07:58:03;;;;;;;7.35;3.90;;;14.60;1.00;;;16.47;59.78;98581.31;5027091;27;129335;-70
2022/09/26 08:00:48;;;;;;;5.78;3.53;;;14.50;1.00;;;16.54;57.70;98582.19;5022849;27;123911;-70
2022/09/26 08:03:35;;;;;;;5.43;3.03;;;14.60;1.00;;;16.68;56.42;98576.09;5051760;27;121865;-70
2022/09/26 08:06:13;;;;;;;6.35;3.75;;;14.80;1.00;;;16.66;55.50;98577.66;5035277;27;129317;-71
2022/09/26 08:08:44;;;;;;;6.68;3.97;;;14.80;1.00;;;16.70;54.50;98578.47;5022097;27;128307;-71
2022/09/26 08:11:41;;;;;;;7.07;3.92;;;14.80;1.00;;;16.70;55.81;98578.47;5012751;27;119641;-71
2022/09/26 08:14:33;;;;;;;7.53;3.42;;;14.80;1.00;;;16.74;56.74;98579.28;5038502;27;119155;-72
2022/09/26 08:17:14;;;;;;;8.98;4.28;;;14.80;1.00;;;16.50;56.10;98586.84;5023238;27;131192;-72
2022/09/26 08:19:42;;;;;;;8.18;4.63;;;14.50;1.00;;;16.54;56.24;98571.25;5026973;27;129138;-72
2022/09/26 08:22:11;;;;;;;10.50;4.20;;;14.60;1.00;;;16.63;56.70;98572.91;5059517;27;119639;-70
2022/09/26 08:24:44;;;;;;;6.93;4.03;;;14.60;1.00;;;16.71;57.92;98574.56;5023426;27;119425;-70
2022/09/26 08:27:22;;;;;;;6.63;4.15;;;14.70;1.00;;;16.87;56.18;98572.41;5021880;27;130367;-69
2022/09/26 08:29:52;;;;;;;8.88;4.55;;;14.90;1.00;;;17.01;56.13;98570.97;5040146;27;129093;-70
2022/09/26 08:32:21;;;;;;;6.45;4.05;;;14.90;1.00;;;17.28;55.10;98571.63;5043562;27;119571;-70
2022/09/26 08:34:51;;;;;;;6.97;4.25;;;15.20;1.00;;;17.60;54.47;98568.31;5046897;27;118932;-69
2022/09/26 08:37:43;;;;;;;10.45;4.53;;;15.40;1.00;;;17.60;54.47;98571.84;5043998;27;129821;-70
2022/09/26 08:40:56;;;;;;;11.93;4.80;;;15.40;1.00;;;17.59;54.29;98567.53;5041191;27;129941;-69
2022/09/26 08:44:00;;;;;;;8.00;4.43;;;15.60;1.00;;;17.70;53.33;98562.13;5064677;27;119584;-71
2022/09/26 08:46:56;;;;;;;;;;;15.60;1.00;;;17.78;53.79;98569.22;5059937;27;119723;-70
2022/09/26 08:49:59;;;;;;;11.95;4.22;;;15.70;1.00;;;17.39;53.35;98563.44;5036910;27;130846;-70
2022/09/26 08:52:35;;;;;;;8.25;4.85;;;15.30;1.00;;;17.53;54.32;98566.31;5022402;27;130116;-72
2022/09/26 08:55:12;;;;;;;6.78;4.10;;;15.30;1.00;;;17.75;53.29;98558.25;5036573;27;122716;-71
2022/09/26 08:57:47;;;;;;;9.13;4.70;;;15.60;1.00;;;17.89;53.60;98568.56;5025432;27;122053;-71
2022/09/26 09:00:20;;;;;;;7.32;4.50;;;15.80;1.00;;;17.78;52.32;98560.22;5023848;27;129846;-71
2022/09/26 09:03:10;;;;;;;7.50;4.30;;;15.70;1.00;;;17.81;52.99;98562.22;5025820;27;130041;-73
2022/09/26 09:05:43;;;;;;;9.05;4.75;;;15.90;1.00;;;17.92;52.94;98557.59;5056899;27;119501;-71
2022/09/26 09:08:20;;;;;;;9.68;5.30;;;16.00;1.00;;;17.92;53.01;98557.59;5040851;27;119683;-75
2022/09/26 09:11:18;;;;;;;6.40;3.90;;;15.90;1.00;;;17.65;51.96;98551.50;5025266;27;131815;-71
2022/09/26 09:14:16;;;;;;;7.53;4.25;;;15.70;1.00;;;17.45;53.65;98556.44;5010466;27;103103;-72
2022/09/26 09:17:16;;;;;;;5.70;4.03;;;15.60;1.00;;;17.74;54.59;98562.16;5044077;27;119910;-71
2022/09/26 09:20:02;;;;;;;6.22;3.83;;;15.90;1.00;;;17.29;53.82;98558.69;5037984;27;119018;-71
2022/09/26 09:23:40;;;;;;;11.95;5.65;;;15.50;1.00;;;17.36;54.99;98551.31;5005911;27;130974;-71
2022/09/26 09:26:17;;;;;;;10.15;4.22;;;15.60;1.00;;;17.29;54.96;98547.72;5029715;27;129082;-71
2022/09/26 09:29:08;;;;;;;8.90;5.28;;;15.40;1.00;;;17.25;56.24;98553.97;5036360;27;119838;-72
2022/09/26 09:31:41;;;;;;;6.88;4.38;;;15.50;1.00;;;17.34;55.41;98550.09;5026342;27;119454;-72
2022/09/26 09:34:31;;;;;;;7.18;4.60;;;15.60;1.00;;;17.48;56.27;98552.94;5041523;27;131207;-70
2022/09/26 09:37:24;;;;;;;7.32;4.70;;;15.70;1.00;;;17.49;54.42;98557.28;5058538;27;129608;-71
2022/09/26 09:40:18;;;;;;;7.68;5.38;;;15.70;1.00;;;17.33;55.05;98554.81;5036847;27;119120;-71
2022/09/26 09:43:04;;;;;;;8.73;5.65;;;15.60;1.00;;;17.49;55.65;98551.78;5046253;27;119230;-70
2022/09/26 09:45:44;;;;;;;7.65;6.05;;;15.90;1.00;;;17.73;54.04;98560.56;5042127;27;130093;-71
2022/09/26 09:48:15;;;;;;;8.65;6.18;;;16.10;1.00;;;17.84;54.14;98555.16;5045092;27;129598;-74
2022/09/26 09:50:57;;;;;;;10.50;6.28;;;16.10;1.00;;;17.89;53.74;98552.09;5058382;27;122403;-69
2022/09/26 09:53:51;;;;;;;8.48;5.63;;;16.10;1.00;;;17.89;52.37;98547.38;5042453;27;122477;-74
2022/09/26 09:56:32;;;;;;;7.72;5.28;;;16.10;1.00;;;17.85;52.15;98545.75;5060196;27;129607;-71
2022/09/26 09:59:31;;;;;;;8.80;6.00;;;16.10;1.00;;;17.66;54.55;98544.84;5041941;27;130647;-73
2022/09/26 10:02:20;;;;;;;9.05;6.50;;;16.00;1.00;;;17.81;54.77;98545.75;5045745;27;119694;-74
2022/09/26 10:05:02;;;;;;;10.43;6.60;;;16.20;1.00;;;17.61;54.97;98537.75;5042429;27;119356;-70
2022/09/26 10:07:31;;;;;;;10.88;6.65;;;16.10;1.00;;;17.54;55.69;98537.72;5045174;27;129744;-71
2022/09/26 10:10:25;;;;;;;8.90;6.95;;;15.90;1.00;;;17.91;54.05;98539.53;5062749;27;129364;-69
2022/09/26 10:13:21;;;;;;;9.43;6.80;;;16.10;1.00;;;18.08;55.40;98538.06;5063048;27;119892;-67
2022/09/26 10:16:10;;;;;;;8.23;6.28;;;16.30;1.00;;;18.26;54.66;98532.66;5060599;27;119982;-68
2022/09/26 10:19:09;;;;;;;7.45;6.30;;;16.60;1.00;;;17.86;54.14;98537.13;5057877;27;130052;-66
2022/09/26 10:21:41;;;;;;;9.93;6.82;;;16.20;1.00;;;17.45;55.33;98529.03;5060067;27;129600;-67
2022/09/26 10:24:33;;;;;;;8.80;6.13;;;15.80;1.00;;;17.49;55.02;98521.63;5041851;27;119808;-66
2022/09/26 10:27:17;;;;;;;8.32;6.13;;;15.90;1.00;;;17.76;56.27;98524.94;5041790;27;119413;-67
2022/09/26 10:29:47;;;;;;;7.93;6.38;;;16.10;1.00;;;18.07;54.21;98516.47;5040841;27;129838;-67
2022/09/26 10:32:18;;;;;;;7.05;5.20;;;16.40;1.00;;;18.33;53.59;98521.66;5058291;27;130073;-67
2022/09/26 10:35:17;;;;;;;9.15;6.18;;;16.60;1.00;;;18.60;53.35;98517.81;5044852;27;119613;-67
2022/09/26 10:37:57;;;;;;;7.30;5.72;;;16.80;1.00;;;18.49;52.95;98512.31;5058819;27;119868;-68
2022/09/26 10:40:47;;;;;;;9.52;6.53;;;16.70;1.00;;;17.97;51.80;98515.25;5041378;27;129836;-67
2022/09/26 10:43:29;;;;;;;8.48;5.97;;;16.20;1.00;;;17.87;54.12;98504.97;5044184;27;129032;-68
2022/09/26 10:46:07;;;;;;;8.83;6.30;;;16.20;1.00;;;18.31;52.68;98507.56;5040115;27;122343;-67
2022/09/26 10:49:00;;;;;;;9.30;5.60;;;16.60;1.00;;;18.73;51.77;98519.03;5059716;27;121815;-69
2022/09/26 10:51:41;;;;;;;8.65;6.07;;;16.90;1.00;;;18.13;50.79;98521.19;5057720;27;129814;-67
2022/09/26 10:54:15;;;;;;;6.13;3.53;;;16.40;1.00;;;18.50;50.31;98517.41;5042621;27;129101;-68
2022/09/26 10:56:49;;;;;;;7.07;3.70;;;16.80;1.00;;;18.57;49.42;98519.38;5059158;27;119459;-68
2022/09/26 10:59:25;;;;;;;6.90;3.92;;;16.90;1.00;;;18.80;48.42;98512.75;5061674;27;118847;-69
2022/09/26 11:01:58;;;;;;;6.15;3.90;;;17.10;1.00;;;18.68;47.68;98513.91;5044135;27;130095;-67
2022/09/26 11:07:41;;;;;;;9.23;4.40;;;16.70;1.00;;;18.98;47.58;98515.53;5059727;27;119532;-68
2022/09/26 11:10:35;;;;;;;6.50;4.43;;;16.90;1.00;;;19.39;47.58;98517.91;5041742;27;118697;-67
2022/09/26 11:13:22;;;;;;;8.23;5.20;;;17.50;1.00;;;19.21;48.25;98526.97;5039819;27;129902;-68